createdAt,value
2022-08-28T00:00:55.212Z,16.20
2022-08-28T00:03:23.631Z,16.10
2022-08-28T00:05:52.274Z,16.20
2022-08-28T00:08:21.729Z,16.40
2022-08-28T00:10:50.000Z,16.20
2022-08-28T00:13:20.527Z,16.30
2022-08-28T00:15:53.042Z,16.20
2022-08-28T00:18:22.163Z,16.10
2022-08-28T00:20:51.004Z,16.20
2022-08-28T00:23:19.341Z,16.30
2022-08-28T00:25:48.887Z,16.20
2022-08-28T00:28:24.011Z,16.20
2022-08-28T00:30:54.748Z,16.40
2022-08-28T00:33:25.131Z,16.20
2022-08-28T00:35:54.589Z,16.10
2022-08-28T00:38:24.109Z,16.10
2022-08-28T00:40:57.374Z,16.10
2022-08-28T00:43:35.274Z,16.10
2022-08-28T00:46:05.621Z,16.10
2022-08-28T00:48:34.185Z,16.30
2022-08-28T00:51:21.200Z,16.10
2022-08-28T00:53:49.335Z,16.10
2022-08-28T00:56:20.533Z,16.10
2022-08-28T00:58:50.347Z,16.00
2022-08-28T01:01:19.656Z,16.20
2022-08-28T01:03:47.585Z,16.00
2022-08-28T01:06:17.621Z,16.00
2022-08-28T01:08:50.609Z,16.00
2022-08-28T01:11:21.655Z,16.10
2022-08-28T01:13:54.354Z,16.00
2022-08-28T01:16:23.412Z,16.00
2022-08-28T01:19:00.532Z,16.00
2022-08-28T01:21:33.591Z,16.00
2022-08-28T01:24:06.038Z,16.00
2022-08-28T01:26:34.059Z,16.00
2022-08-28T01:29:02.953Z,15.90
2022-08-28T01:31:32.741Z,15.90
2022-08-28T01:34:00.863Z,16.00
2022-08-28T01:36:30.115Z,16.00
2022-08-28T01:39:02.375Z,16.00
2022-08-28T01:41:32.096Z,16.00
2022-08-28T01:44:00.008Z,16.10
2022-08-28T01:46:28.230Z,16.00
2022-08-28T01:48:56.891Z,15.90
2022-08-28T01:51:25.113Z,16.00
2022-08-28T01:53:53.320Z,15.90
2022-08-28T01:56:21.783Z,16.00
2022-08-28T01:58:51.436Z,16.00
2022-08-28T02:01:21.872Z,16.10
2022-08-28T02:03:53.107Z,15.90
2022-08-28T02:06:21.265Z,16.10
2022-08-28T02:08:54.633Z,16.00
2022-08-28T02:11:23.847Z,16.10
2022-08-28T02:13:56.334Z,16.10
2022-08-28T02:16:25.071Z,16.00
2022-08-28T02:18:53.702Z,16.00
2022-08-28T02:21:22.307Z,15.80
2022-08-28T02:23:50.336Z,15.90
2022-08-28T02:26:18.606Z,15.90
2022-08-28T02:28:46.907Z,15.90
2022-08-28T02:31:16.692Z,15.90
2022-08-28T02:33:45.812Z,16.00
2022-08-28T02:36:16.050Z,15.80
2022-08-28T02:38:45.055Z,15.80
2022-08-28T02:41:13.664Z,15.80
2022-08-28T02:43:41.679Z,15.70
2022-08-28T02:46:10.000Z,15.70
2022-08-28T02:48:40.812Z,15.60
2022-08-28T02:51:12.878Z,15.50
2022-08-28T02:53:42.269Z,15.50
2022-08-28T02:56:10.634Z,15.40
2022-08-28T02:58:39.381Z,15.30
2022-08-28T03:01:11.046Z,15.30
2022-08-28T03:03:41.379Z,15.30
2022-08-28T03:06:10.499Z,15.30
2022-08-28T03:08:38.466Z,15.40
2022-08-28T03:11:06.621Z,15.20
2022-08-28T03:13:34.795Z,15.20
2022-08-28T03:16:04.816Z,15.20
2022-08-28T03:18:33.214Z,15.20
2022-08-28T03:21:02.947Z,15.10
2022-08-28T03:23:30.215Z,15.10
2022-08-28T03:26:00.672Z,15.20
2022-08-28T03:28:31.584Z,15.10
2022-08-28T03:31:00.025Z,15.10
2022-08-28T03:33:28.642Z,15.20
2022-08-28T03:35:56.989Z,15.20
2022-08-28T03:38:26.905Z,15.20
2022-08-28T03:40:55.513Z,15.10
2022-08-28T03:43:25.080Z,15.20
2022-08-28T03:45:58.177Z,15.20
2022-08-28T03:48:27.286Z,15.20
2022-08-28T03:50:57.419Z,15.20
2022-08-28T03:53:28.975Z,15.10
2022-08-28T03:55:57.981Z,15.10
2022-08-28T03:58:26.614Z,15.20
2022-08-28T04:00:54.811Z,15.20
2022-08-28T04:03:22.876Z,15.20
2022-08-28T04:05:51.835Z,15.20
2022-08-28T04:08:21.070Z,15.20
2022-08-28T04:10:51.484Z,15.20
2022-08-28T04:13:22.157Z,15.10
2022-08-28T04:15:58.785Z,15.20
2022-08-28T04:18:27.304Z,15.10
2022-08-28T04:21:03.265Z,15.10
2022-08-28T04:23:31.584Z,15.10
2022-08-28T04:26:01.049Z,15.10
2022-08-28T04:28:29.194Z,15.20
2022-08-28T04:30:57.377Z,15.10
2022-08-28T04:33:27.305Z,15.10
2022-08-28T04:35:55.707Z,15.10
2022-08-28T04:38:23.891Z,15.20
2022-08-28T04:40:51.838Z,15.20
2022-08-28T04:43:21.483Z,15.30
2022-08-28T04:45:49.542Z,15.30
2022-08-28T04:48:17.832Z,15.40
2022-08-28T04:50:47.877Z,15.50
2022-08-28T04:53:18.178Z,15.50
2022-08-28T04:55:54.210Z,15.50
2022-08-28T04:58:24.699Z,15.50
2022-08-28T05:00:54.604Z,15.60
2022-08-28T05:03:23.206Z,15.60
2022-08-28T05:05:54.140Z,15.60
2022-08-28T05:08:27.770Z,15.60
2022-08-28T05:10:58.052Z,15.70
2022-08-28T05:13:28.141Z,15.70
2022-08-28T05:15:56.345Z,15.70
2022-08-28T05:18:25.487Z,15.60
2022-08-28T05:20:53.451Z,15.70
2022-08-28T05:23:22.148Z,15.70
2022-08-28T05:25:53.752Z,15.80
2022-08-28T05:28:22.202Z,15.90
2022-08-28T05:30:52.293Z,15.90
2022-08-28T05:33:21.123Z,16.00
2022-08-28T05:35:49.375Z,15.90
2022-08-28T05:38:18.260Z,16.20
2022-08-28T05:40:49.087Z,16.10
2022-08-28T05:43:18.477Z,16.20
2022-08-28T05:45:46.603Z,16.20
2022-08-28T05:48:16.281Z,16.50
2022-08-28T05:50:47.460Z,16.30
2022-08-28T05:53:17.361Z,16.30
2022-08-28T05:55:51.718Z,16.40
2022-08-28T05:58:33.709Z,16.40
2022-08-28T06:01:14.831Z,16.50
2022-08-28T06:03:47.441Z,16.60
2022-08-28T06:06:15.537Z,16.60
2022-08-28T06:08:58.225Z,16.70
2022-08-28T06:11:27.512Z,16.70
2022-08-28T06:14:01.537Z,16.70
2022-08-28T06:16:30.589Z,16.90
2022-08-28T06:19:00.603Z,16.70
2022-08-28T06:21:29.009Z,16.90
2022-08-28T06:23:57.419Z,16.90
2022-08-28T06:26:25.409Z,17.00
2022-08-28T06:28:53.619Z,17.00
2022-08-28T06:31:24.464Z,17.00
2022-08-28T06:33:54.624Z,17.10
2022-08-28T06:36:24.468Z,17.20
2022-08-28T06:38:52.429Z,17.20
2022-08-28T06:41:20.738Z,17.10
2022-08-28T06:43:49.261Z,17.30
2022-08-28T06:46:18.002Z,17.40
2022-08-28T06:48:46.300Z,17.40
2022-08-28T06:51:15.862Z,17.50
2022-08-28T06:53:47.211Z,17.50
2022-08-28T06:56:25.567Z,17.40
2022-08-28T06:58:56.935Z,17.60
2022-08-28T07:01:29.708Z,17.60
2022-08-28T07:04:02.611Z,17.60
2022-08-28T07:06:34.530Z,17.70
2022-08-28T07:09:06.535Z,17.70
2022-08-28T07:11:37.521Z,17.80
2022-08-28T07:14:06.483Z,17.80
2022-08-28T07:16:40.087Z,17.80
2022-08-28T07:19:14.577Z,17.90
2022-08-28T07:21:44.879Z,17.90
2022-08-28T07:24:16.728Z,18.00
2022-08-28T07:26:47.023Z,18.10
2022-08-28T07:29:15.563Z,18.10
2022-08-28T07:31:48.340Z,18.30
2022-08-28T07:34:18.037Z,18.20
2022-08-28T07:36:46.538Z,18.20
2022-08-28T07:39:17.487Z,18.40
2022-08-28T07:41:47.458Z,18.40
2022-08-28T07:44:33.787Z,18.50
2022-08-28T07:47:04.630Z,18.50
2022-08-28T07:49:33.664Z,18.60
2022-08-28T07:52:02.241Z,18.60
2022-08-28T07:54:32.010Z,18.80
2022-08-28T07:57:02.140Z,18.80
2022-08-28T07:59:36.618Z,18.90
2022-08-28T08:02:05.875Z,18.90
2022-08-28T08:04:34.027Z,18.90
2022-08-28T08:07:04.031Z,18.90
2022-08-28T08:09:38.404Z,19.00
2022-08-28T08:12:07.542Z,19.00
2022-08-28T08:14:38.742Z,19.00
2022-08-28T08:17:07.950Z,19.10
2022-08-28T08:19:37.288Z,19.10
2022-08-28T08:22:05.605Z,19.10
2022-08-28T08:24:35.652Z,19.20
2022-08-28T08:27:04.300Z,19.30
2022-08-28T08:29:35.547Z,19.30
2022-08-28T08:32:08.041Z,19.60
2022-08-28T08:34:38.540Z,19.60
2022-08-28T08:37:06.866Z,19.70
2022-08-28T08:39:37.856Z,19.80
2022-08-28T08:42:12.774Z,19.70
2022-08-28T08:44:42.891Z,19.90
2022-08-28T08:47:16.587Z,20.00
2022-08-28T08:49:53.107Z,20.00
2022-08-28T08:52:38.170Z,20.00
2022-08-28T08:55:24.756Z,20.00
2022-08-28T08:58:05.645Z,20.00
2022-08-28T09:00:40.542Z,20.10
2022-08-28T09:03:15.613Z,20.10
2022-08-28T09:05:50.058Z,20.00
2022-08-28T09:08:27.845Z,20.00
2022-08-28T09:11:03.033Z,20.00
2022-08-28T09:13:43.018Z,20.00
2022-08-28T09:16:19.087Z,20.00
2022-08-28T09:18:48.477Z,20.00
2022-08-28T09:21:29.307Z,20.00
2022-08-28T09:24:01.286Z,20.00
2022-08-28T09:26:36.042Z,20.00
2022-08-28T09:29:07.508Z,20.00
2022-08-28T09:31:38.318Z,20.00
2022-08-28T09:34:24.024Z,20.00
2022-08-28T09:36:53.111Z,20.10
2022-08-28T09:39:23.741Z,20.30
2022-08-28T09:42:21.880Z,20.50
2022-08-28T09:45:01.468Z,20.60
2022-08-28T09:47:46.871Z,20.80
2022-08-28T09:50:31.455Z,21.00
2022-08-28T09:53:17.231Z,21.00
2022-08-28T09:55:56.464Z,21.10
2022-08-28T09:58:37.389Z,21.10
2022-08-28T10:01:49.122Z,21.20
2022-08-28T10:04:38.658Z,21.20
2022-08-28T10:07:13.196Z,21.20
2022-08-28T10:09:55.642Z,21.40
2022-08-28T10:12:41.941Z,21.70
2022-08-28T10:15:17.902Z,21.70
2022-08-28T10:17:59.197Z,21.90
2022-08-28T10:20:42.489Z,22.00
2022-08-28T10:23:19.159Z,22.30
2022-08-28T10:25:54.802Z,22.60
2022-08-28T10:28:36.946Z,22.80
2022-08-28T10:31:13.748Z,22.80
2022-08-28T10:33:55.444Z,22.70
2022-08-28T10:36:34.864Z,22.50
2022-08-28T10:39:17.722Z,22.50
2022-08-28T10:41:49.015Z,22.70
2022-08-28T10:44:22.287Z,22.90
2022-08-28T10:46:56.058Z,23.10
2022-08-28T10:49:29.872Z,23.30
2022-08-28T10:52:02.145Z,23.30
2022-08-28T10:54:38.005Z,23.40
2022-08-28T10:57:15.998Z,23.60
2022-08-28T10:59:49.551Z,23.60
2022-08-28T11:02:21.355Z,23.60
2022-08-28T11:04:49.950Z,23.60
2022-08-28T11:07:24.970Z,23.10
2022-08-28T11:09:53.337Z,23.00
2022-08-28T11:12:42.852Z,22.90
2022-08-28T11:15:45.292Z,23.20
2022-08-28T11:18:49.734Z,23.40
2022-08-28T11:21:24.792Z,23.50
2022-08-28T11:24:01.345Z,23.30
2022-08-28T11:26:41.208Z,23.20
2022-08-28T11:29:09.437Z,22.80
2022-08-28T11:31:43.833Z,23.20
2022-08-28T11:34:45.936Z,23.30
2022-08-28T11:37:40.429Z,23.50
2022-08-28T11:40:19.080Z,23.40
2022-08-28T11:42:48.868Z,23.50
2022-08-28T11:45:22.331Z,23.70
2022-08-28T11:47:56.471Z,23.70
2022-08-28T11:50:30.175Z,23.60
2022-08-28T11:53:44.131Z,23.50
2022-08-28T11:56:39.952Z,23.20
2022-08-28T11:59:35.104Z,23.20
2022-08-28T12:02:37.179Z,23.20
2022-08-28T12:05:09.497Z,23.40
2022-08-28T12:07:39.795Z,23.60
2022-08-28T12:10:54.429Z,23.70
2022-08-28T12:13:48.383Z,23.80
2022-08-28T12:16:17.936Z,23.90
2022-08-28T12:19:03.993Z,24.10
2022-08-28T12:21:36.807Z,24.00
2022-08-28T12:24:09.084Z,24.00
2022-08-28T12:26:43.188Z,24.00
2022-08-28T12:29:27.248Z,24.00
2022-08-28T12:32:27.383Z,24.00
2022-08-28T12:35:18.564Z,24.00
2022-08-28T12:38:00.096Z,23.90
2022-08-28T12:40:31.225Z,23.70
2022-08-28T12:43:02.791Z,23.60
2022-08-28T12:45:38.345Z,23.50
2022-08-28T12:48:19.159Z,23.70
2022-08-28T12:51:13.792Z,24.00
2022-08-28T12:53:44.888Z,23.90
2022-08-28T13:20:29.360Z,23.50
2022-08-28T13:23:01.665Z,23.60
2022-08-28T13:25:34.078Z,23.90
2022-08-28T13:28:04.964Z,24.10
2022-08-28T13:30:37.435Z,23.60
2022-08-28T13:33:20.131Z,23.40
2022-08-28T13:35:51.123Z,23.20
2022-08-28T13:38:20.550Z,23.10
2022-08-28T13:40:58.046Z,23.10
2022-08-28T13:43:29.466Z,23.10
2022-08-28T13:45:58.096Z,23.40
2022-08-28T13:48:28.118Z,23.70
2022-08-28T13:51:03.115Z,23.70
2022-08-28T13:53:33.635Z,23.80
2022-08-28T13:56:02.962Z,23.80
2022-08-28T13:58:31.067Z,24.00
2022-08-28T14:00:59.780Z,24.20
2022-08-28T14:03:35.830Z,24.30
2022-08-28T14:06:08.518Z,24.70
2022-08-28T14:08:36.754Z,24.70
2022-08-28T14:11:05.055Z,24.50
2022-08-28T14:13:33.049Z,24.30
2022-08-28T14:16:01.323Z,24.10
2022-08-28T14:18:29.265Z,24.00
2022-08-28T14:20:57.761Z,23.80
2022-08-28T14:23:27.525Z,23.70
2022-08-28T14:25:55.618Z,23.60
2022-08-28T14:28:24.172Z,23.40
2022-08-28T14:30:52.988Z,23.20
2022-08-28T14:33:21.166Z,23.10
2022-08-28T14:35:55.808Z,23.00
2022-08-28T14:38:38.795Z,23.10
2022-08-28T14:41:10.157Z,22.90
2022-08-28T14:43:38.469Z,23.00
2022-08-28T14:46:11.414Z,23.10
2022-08-28T14:48:39.966Z,23.00
2022-08-28T14:51:11.019Z,23.10
2022-08-28T14:53:38.946Z,23.00
2022-08-28T14:56:08.023Z,23.00
2022-08-28T14:58:38.012Z,23.10
2022-08-28T15:01:06.577Z,22.90
2022-08-28T15:03:34.881Z,23.10
2022-08-28T15:06:03.738Z,23.20
2022-08-28T15:08:31.955Z,23.10
2022-08-28T15:11:00.123Z,23.10
2022-08-28T15:13:31.434Z,22.90
2022-08-28T15:16:05.285Z,23.00
2022-08-28T15:18:43.769Z,23.00
2022-08-28T15:21:16.811Z,23.00
2022-08-28T15:23:44.780Z,23.00
2022-08-28T15:26:23.778Z,23.00
2022-08-28T15:28:55.475Z,23.10
2022-08-28T15:31:25.759Z,23.30
2022-08-28T15:33:54.380Z,23.60
2022-08-28T15:36:23.034Z,23.30
2022-08-28T15:39:05.055Z,23.20
2022-08-28T15:41:33.130Z,23.00
2022-08-28T15:44:02.926Z,22.90
2022-08-28T15:46:35.001Z,22.80
2022-08-28T15:49:05.235Z,22.70
2022-08-28T15:51:36.773Z,22.60
2022-08-28T15:54:05.952Z,22.70
2022-08-28T15:56:33.930Z,22.80
2022-08-28T15:59:02.079Z,22.80
2022-08-28T16:01:30.166Z,22.80
2022-08-28T16:03:59.777Z,22.80
2022-08-28T16:06:28.955Z,22.70
2022-08-28T16:08:58.575Z,22.70
2022-08-28T16:11:27.355Z,22.90
2022-08-28T16:14:04.628Z,23.00
2022-08-28T16:16:34.240Z,23.00
2022-08-28T16:19:03.877Z,22.90
2022-08-28T16:21:32.922Z,23.00
2022-08-28T16:24:01.388Z,23.10
2022-08-28T16:26:29.962Z,23.10
2022-08-28T16:28:58.279Z,23.10
2022-08-28T16:31:27.253Z,23.00
2022-08-28T16:33:55.401Z,23.20
2022-08-28T16:36:25.300Z,23.20
2022-08-28T16:39:03.750Z,23.40
2022-08-28T16:41:32.721Z,23.50
2022-08-28T16:44:01.226Z,23.60
2022-08-28T16:46:29.492Z,23.40
2022-08-28T16:48:57.958Z,23.30
2022-08-28T16:51:29.284Z,23.20
2022-08-28T16:53:58.381Z,23.30
2022-08-28T16:56:26.623Z,23.30
2022-08-28T16:58:54.807Z,22.90
2022-08-28T17:01:24.203Z,23.10
2022-08-28T17:03:52.919Z,23.10
2022-08-28T17:06:23.761Z,23.00
2022-08-28T17:08:56.902Z,23.00
2022-08-28T17:11:26.079Z,22.90
2022-08-28T17:13:54.191Z,22.90
2022-08-28T17:16:23.924Z,22.80
2022-08-28T17:18:53.010Z,22.70
2022-08-28T17:21:39.102Z,22.60
2022-08-28T17:24:08.779Z,22.40
2022-08-28T17:26:36.859Z,22.30
2022-08-28T17:29:05.399Z,22.10
2022-08-28T17:31:33.808Z,21.90
2022-08-28T17:34:01.870Z,21.70
2022-08-28T17:36:33.402Z,21.40
2022-08-28T17:39:06.170Z,21.40
2022-08-28T17:41:35.857Z,21.20
2022-08-28T17:44:05.423Z,21.10
2022-08-28T17:46:38.190Z,20.90
2022-08-28T17:49:10.442Z,20.80
2022-08-28T17:51:44.448Z,20.80
2022-08-28T17:54:14.179Z,20.60
2022-08-28T17:56:43.876Z,20.60
2022-08-28T17:59:15.035Z,20.60
2022-08-28T18:01:45.310Z,20.60
2022-08-28T18:04:14.687Z,20.60
2022-08-28T18:06:43.546Z,20.50
2022-08-28T18:09:11.997Z,20.50
2022-08-28T18:11:40.967Z,20.50
2022-08-28T18:14:11.734Z,20.40
2022-08-28T18:16:40.210Z,20.30
2022-08-28T18:19:11.164Z,20.40
2022-08-28T18:21:44.113Z,20.40
2022-08-28T18:24:13.230Z,20.30
2022-08-28T18:26:43.098Z,20.30
2022-08-28T18:29:13.209Z,20.30
2022-08-28T18:31:42.194Z,20.10
2022-08-28T18:34:11.830Z,20.20
2022-08-28T18:36:41.589Z,20.30
2022-08-28T18:39:10.956Z,20.20
2022-08-28T18:41:43.620Z,20.10
2022-08-28T18:44:15.937Z,20.10
2022-08-28T18:46:44.999Z,20.00
2022-08-28T18:49:14.157Z,20.00
2022-08-28T18:51:43.447Z,19.90
2022-08-28T18:54:12.203Z,19.80
2022-08-28T18:56:41.232Z,19.80
2022-08-28T18:59:11.696Z,19.70
2022-08-28T19:01:43.427Z,19.60
2022-08-28T19:04:12.084Z,19.60
2022-08-28T19:06:42.258Z,19.50
2022-08-28T19:09:19.196Z,19.50
2022-08-28T19:11:49.239Z,19.50
2022-08-28T19:14:17.504Z,19.40
2022-08-28T19:16:47.350Z,19.40
2022-08-28T19:19:16.014Z,19.40
2022-08-28T19:21:44.900Z,19.40
2022-08-28T19:24:16.384Z,19.30
2022-08-28T19:26:45.467Z,19.30
2022-08-28T19:29:15.773Z,19.30
2022-08-28T19:31:44.785Z,19.30
2022-08-28T19:34:14.313Z,19.20
2022-08-28T19:36:42.757Z,19.10
2022-08-28T19:39:10.769Z,19.40
2022-08-28T19:41:39.303Z,19.20
2022-08-28T19:44:08.554Z,19.20
2022-08-28T19:46:37.075Z,19.20
2022-08-28T19:49:07.608Z,19.20
2022-08-28T19:51:41.675Z,19.10
2022-08-28T19:54:11.276Z,19.10
2022-08-28T19:56:40.066Z,19.20
2022-08-28T19:59:09.084Z,19.20
2022-08-28T20:01:40.461Z,19.10
2022-08-28T20:04:13.379Z,19.10
2022-08-28T20:06:43.525Z,19.10
2022-08-28T20:09:14.477Z,19.10
2022-08-28T20:11:45.071Z,19.20
2022-08-28T20:14:17.484Z,19.00
2022-08-28T20:16:48.716Z,19.00
2022-08-28T20:19:17.894Z,18.90
2022-08-28T20:21:50.321Z,18.90
2022-08-28T20:24:23.303Z,19.00
2022-08-28T20:26:52.176Z,18.90
2022-08-28T20:29:20.361Z,18.90
2022-08-28T20:31:49.662Z,18.80
2022-08-28T20:34:20.569Z,18.80
2022-08-28T20:36:50.312Z,18.80
2022-08-28T20:39:19.806Z,18.70
2022-08-28T20:41:49.246Z,18.70
2022-08-28T20:44:19.675Z,18.90
2022-08-28T20:46:50.983Z,18.80
2022-08-28T20:49:22.120Z,18.70
2022-08-28T20:51:56.958Z,18.50
2022-08-28T20:54:29.167Z,18.60
2022-08-28T20:56:58.667Z,18.60
2022-08-28T20:59:28.768Z,18.60
2022-08-28T21:02:05.326Z,18.60
2022-08-28T21:04:36.161Z,18.70
2022-08-28T21:07:06.368Z,18.70
2022-08-28T21:09:53.739Z,18.80
2022-08-28T21:12:22.658Z,18.70
2022-08-28T21:14:53.529Z,18.70
2022-08-28T21:17:28.965Z,18.60
2022-08-28T21:20:00.300Z,18.70
2022-08-28T21:22:31.617Z,18.50
2022-08-28T21:25:00.039Z,18.50
2022-08-28T21:27:28.326Z,18.40
2022-08-28T21:29:58.371Z,18.40
2022-08-28T21:32:27.008Z,18.40
2022-08-28T21:34:55.247Z,18.30
2022-08-28T21:37:24.445Z,18.30
2022-08-28T21:39:56.635Z,18.30
2022-08-28T21:42:25.220Z,18.20
2022-08-28T21:44:54.606Z,18.20
2022-08-28T21:47:24.057Z,18.20
2022-08-28T21:49:54.199Z,18.10
2022-08-28T21:52:24.157Z,18.00
2022-08-28T21:54:58.165Z,18.00
2022-08-28T21:57:26.529Z,18.10
2022-08-28T21:59:55.408Z,18.00
2022-08-28T22:02:23.590Z,17.90
2022-08-28T22:04:52.144Z,17.90
2022-08-28T22:07:20.690Z,17.90
2022-08-28T22:09:48.671Z,17.80
2022-08-28T22:12:18.049Z,17.80
2022-08-28T22:14:46.243Z,17.80
2022-08-28T22:17:15.075Z,17.80
2022-08-28T22:19:43.076Z,17.70
2022-08-28T22:22:32.617Z,17.90
2022-08-28T22:25:00.551Z,17.70
2022-08-28T22:27:31.804Z,17.70
2022-08-28T22:29:59.871Z,17.70
2022-08-28T22:32:28.065Z,17.70
2022-08-28T22:34:56.252Z,17.70
2022-08-28T22:37:25.828Z,17.70
2022-08-28T22:39:53.900Z,17.70
2022-08-28T22:42:23.018Z,17.60
2022-08-28T22:44:52.435Z,17.60
2022-08-28T22:47:20.506Z,17.60
2022-08-28T22:49:48.674Z,17.60
2022-08-28T22:52:17.381Z,17.40
2022-08-28T22:54:45.659Z,17.50
2022-08-28T22:57:14.920Z,17.50
2022-08-28T22:59:42.941Z,17.70
2022-08-28T23:02:12.821Z,17.50
2022-08-28T23:04:40.951Z,17.50
2022-08-28T23:07:09.188Z,17.50
2022-08-28T23:09:37.341Z,17.50
2022-08-28T23:12:06.066Z,17.50
2022-08-28T23:14:34.240Z,17.40
2022-08-28T23:17:02.275Z,17.40
2022-08-28T23:19:31.795Z,17.30
2022-08-28T23:22:00.020Z,17.30
2022-08-28T23:24:28.351Z,17.30
2022-08-28T23:26:56.384Z,17.20
2022-08-28T23:29:24.491Z,17.30
2022-08-28T23:31:52.544Z,17.30
2022-08-28T23:34:20.547Z,17.40
2022-08-28T23:36:50.281Z,17.20
2022-08-28T23:39:18.442Z,17.20
2022-08-28T23:41:46.618Z,17.20
2022-08-28T23:44:14.706Z,17.10
2022-08-28T23:46:42.689Z,17.20
2022-08-28T23:49:11.562Z,17.30
2022-08-28T23:51:40.259Z,17.20
2022-08-28T23:54:10.854Z,17.20
2022-08-28T23:56:39.364Z,17.20
2022-08-28T23:59:07.518Z,17.10
